createdAt,value
2022-12-23T00:01:55.179Z,99429.38
2022-12-23T00:04:21.664Z,99423.09
2022-12-23T00:06:48.097Z,99433.34
2022-12-23T00:09:14.700Z,99444.88
2022-12-23T00:12:01.067Z,99437.75
2022-12-23T00:14:45.949Z,99448.81
2022-12-23T00:17:22.275Z,99446.09
2022-12-23T00:19:49.531Z,99439.19
2022-12-23T00:22:15.896Z,99438.78
2022-12-23T00:24:45.383Z,99437.13
2022-12-23T00:27:14.110Z,99428.97
2022-12-23T00:29:42.701Z,99423.28
2022-12-23T00:32:09.131Z,99430.41
2022-12-23T00:34:35.809Z,99431.06
2022-12-23T00:37:02.148Z,99426.66
2022-12-23T00:39:54.649Z,99427.50
2022-12-23T00:42:40.037Z,99435.66
2022-12-23T00:45:15.735Z,99432.53
2022-12-23T00:48:03.266Z,99426.44
2022-12-23T00:50:36.671Z,99445.31
2022-12-23T00:53:03.567Z,99446.97
2022-12-23T00:55:30.542Z,99448.22
2022-12-23T00:57:57.006Z,99452.63
2022-12-23T01:00:43.666Z,99448.44
2022-12-23T01:03:33.492Z,99453.06
2022-12-23T01:06:01.323Z,99449.91
2022-12-23T01:08:29.177Z,99449.47
2022-12-23T01:10:55.606Z,99454.94
2022-12-23T01:13:22.387Z,99457.66
2022-12-23T01:15:51.060Z,99460.78
2022-12-23T01:18:19.674Z,99459.97
2022-12-23T01:20:46.023Z,99458.06
2022-12-23T01:23:12.443Z,99465.19
2022-12-23T01:25:38.899Z,99479.66
2022-12-23T01:28:05.609Z,99478.22
2022-12-23T01:30:32.045Z,99483.44
2022-12-23T01:32:58.547Z,99483.44
2022-12-23T01:35:24.993Z,99484.50
2022-12-23T01:37:51.435Z,99483.66
2022-12-23T01:40:17.851Z,99498.09
2022-12-23T01:42:47.578Z,99506.06
2022-12-23T01:45:30.415Z,99500.19
2022-12-23T01:48:00.657Z,99508.16
2022-12-23T01:50:41.862Z,99516.34
2022-12-23T01:53:40.652Z,99530.97
2022-12-23T01:56:15.331Z,99531.81
2022-12-23T01:58:48.178Z,99533.50
2022-12-23T02:01:33.715Z,99529.09
2022-12-23T02:04:07.931Z,99530.38
2022-12-23T02:06:56.452Z,99535.16
2022-12-23T02:09:47.616Z,99542.50
2022-12-23T02:12:41.799Z,99550.03
2022-12-23T02:15:59.244Z,99549.00
2022-12-23T02:19:00.565Z,99555.91
2022-12-23T02:22:19.464Z,99554.22
2022-12-23T02:25:04.344Z,99551.94
2022-12-23T02:27:34.385Z,99559.31
2022-12-23T02:30:22.686Z,99561.19
2022-12-23T02:33:35.357Z,99568.94
2022-12-23T02:36:33.549Z,99575.22
2022-12-23T02:39:09.027Z,99579.81
2022-12-23T02:41:54.749Z,99580.44
2022-12-23T02:44:37.753Z,99580.84
2022-12-23T02:47:10.638Z,99586.94
2022-12-23T02:49:42.308Z,99589.88
2022-12-23T02:52:16.122Z,99581.69
2022-12-23T02:54:51.151Z,99594.47
2022-12-23T02:57:23.528Z,99587.78
2022-12-23T02:59:51.711Z,99600.16
2022-12-23T03:02:19.279Z,99600.56
2022-12-23T03:04:45.829Z,99600.75
2022-12-23T03:07:39.057Z,99602.50
2022-12-23T03:10:13.248Z,99617.94
2022-12-23T03:13:07.668Z,99620.66
2022-12-23T03:15:43.659Z,99621.69
2022-12-23T03:18:32.611Z,99619.16
2022-12-23T03:21:34.034Z,99626.06
2022-12-23T03:24:08.435Z,99629.59
2022-12-23T03:26:42.166Z,99636.94
2022-12-23T03:29:41.522Z,99634.19
2022-12-23T03:32:12.082Z,99636.94
2022-12-23T03:34:43.036Z,99644.69
2022-12-23T03:37:13.356Z,99646.78
2022-12-23T03:39:52.605Z,99651.00
2022-12-23T03:42:47.810Z,99642.63
2022-12-23T03:45:39.898Z,99641.53
2022-12-23T03:48:16.735Z,99652.69
2022-12-23T03:50:45.212Z,99649.72
2022-12-23T03:53:36.804Z,99661.00
2022-12-23T03:56:09.974Z,99666.63
2022-12-23T03:58:58.663Z,99669.53
2022-12-23T04:01:43.171Z,99665.91
2022-12-23T04:04:26.443Z,99660.25
2022-12-23T04:07:00.574Z,99669.69
2022-12-23T04:09:31.844Z,99671.97
2022-12-23T04:11:58.905Z,99676.31
2022-12-23T04:14:27.626Z,99685.16
2022-12-23T04:16:58.381Z,99685.16
2022-12-23T04:19:25.405Z,99696.06
2022-12-23T04:21:54.026Z,99688.69
2022-12-23T04:24:20.383Z,99679.75
2022-12-23T04:26:46.686Z,99675.56
2022-12-23T04:29:13.017Z,99685.66
2022-12-23T04:31:39.541Z,99691.13
2022-12-23T04:34:06.019Z,99692.41
2022-12-23T04:36:34.781Z,99701.88
2022-12-23T04:39:01.188Z,99700.84
2022-12-23T04:41:27.576Z,99705.88
2022-12-23T04:43:56.250Z,99713.41
2022-12-23T04:46:22.683Z,99710.06
2022-12-23T04:48:49.102Z,99715.72
2022-12-23T04:51:15.553Z,99711.31
2022-12-23T04:53:44.547Z,99713.41
2022-12-23T04:56:11.127Z,99714.44
2022-12-23T04:58:37.569Z,99720.75
2022-12-23T05:01:09.379Z,99718.22
2022-12-23T05:03:36.584Z,99721.44
2022-12-23T05:06:03.623Z,99712.84
2022-12-23T05:08:30.557Z,99707.00
2022-12-23T05:10:57.435Z,99709.91
2022-12-23T05:13:24.356Z,99713.06
2022-12-23T05:15:52.649Z,99709.72
2022-12-23T05:18:22.330Z,99714.97
2022-12-23T05:20:49.598Z,99719.16
2022-12-23T05:23:18.562Z,99713.50
2022-12-23T05:25:51.674Z,99715.59
2022-12-23T05:28:18.453Z,99715.19
2022-12-23T05:30:45.035Z,99719.78
2022-12-23T05:33:11.555Z,99720.84
2022-12-23T05:35:37.935Z,99719.41
2022-12-23T05:38:04.482Z,99726.91
2022-12-23T05:40:34.021Z,99729.50
2022-12-23T05:43:00.576Z,99715.47
2022-12-23T05:45:27.036Z,99720.31
2022-12-23T05:47:53.533Z,99703.53
2022-12-23T05:50:20.031Z,99711.50
2022-12-23T05:52:46.501Z,99720.31
2022-12-23T05:55:12.872Z,99711.91
2022-12-23T05:57:39.198Z,99720.50
2022-12-23T06:00:06.630Z,99720.75
2022-12-23T06:02:33.164Z,99718.88
2022-12-23T06:04:59.768Z,99719.47
2022-12-23T06:07:26.198Z,99717.97
2022-12-23T06:09:52.537Z,99711.00
2022-12-23T06:12:18.888Z,99713.88
2022-12-23T06:14:45.306Z,99716.34
2022-12-23T06:17:11.672Z,99717.59
2022-12-23T06:19:38.091Z,99712.75
2022-12-23T06:22:04.623Z,99711.72
2022-12-23T06:24:31.053Z,99719.22
2022-12-23T06:26:57.745Z,99710.47
2022-12-23T06:29:24.863Z,99713.78
2022-12-23T06:31:51.332Z,99726.19
2022-12-23T06:34:19.978Z,99725.53
2022-12-23T06:36:46.587Z,99739.34
2022-12-23T06:39:13.097Z,99742.31
2022-12-23T06:41:39.470Z,99743.97
2022-12-23T06:44:09.412Z,99756.97
2022-12-23T06:46:35.844Z,99756.97
2022-12-23T06:49:06.119Z,99755.72
2022-12-23T06:51:35.671Z,99763.06
2022-12-23T06:54:02.305Z,99754.88
2022-12-23T06:56:28.690Z,99765.34
2022-12-23T06:58:55.093Z,99761.31
2022-12-23T07:01:23.939Z,99765.28
2022-12-23T07:03:50.631Z,99766.34
2022-12-23T07:06:17.733Z,99771.78
2022-12-23T07:08:44.116Z,99757.53
2022-12-23T07:11:12.979Z,99765.69
2022-12-23T07:13:39.351Z,99754.81
2022-12-23T07:16:08.127Z,99764.00
2022-12-23T07:18:35.029Z,99756.03
2022-12-23T07:21:02.571Z,99750.72
2022-12-23T07:23:31.963Z,99752.38
2022-12-23T07:25:58.430Z,99741.00
2022-12-23T07:28:27.358Z,99743.22
2022-12-23T07:30:53.856Z,99742.59
2022-12-23T07:33:20.177Z,99741.91
2022-12-23T07:35:46.645Z,99744.63
2022-12-23T07:38:13.047Z,99729.78
2022-12-23T07:40:39.407Z,99732.50
2022-12-23T07:43:05.961Z,99743.22
2022-12-23T07:45:32.369Z,99766.94
2022-12-23T07:48:01.039Z,99779.28
2022-12-23T07:50:27.692Z,99778.50
2022-12-23T07:52:54.703Z,99777.06
2022-12-23T07:55:21.525Z,99781.47
2022-12-23T07:57:53.707Z,99772.06
2022-12-23T08:00:20.735Z,99768.97
2022-12-23T08:02:48.238Z,99768.56
2022-12-23T08:05:15.043Z,99763.56
2022-12-23T08:07:42.114Z,99768.44
2022-12-23T08:10:09.838Z,99774.94
2022-12-23T08:12:38.843Z,99765.34
2022-12-23T08:15:05.979Z,99763.91
2022-12-23T08:17:32.499Z,99772.94
2022-12-23T08:19:58.967Z,99780.94
2022-12-23T08:22:25.475Z,99784.28
2022-12-23T08:24:52.592Z,99782.84
2022-12-23T08:27:19.219Z,99773.41
2022-12-23T08:29:45.596Z,99769.66
2022-12-23T08:32:11.960Z,99755.66
2022-12-23T08:34:38.497Z,99760.50
2022-12-23T08:37:04.983Z,99750.91
2022-12-23T08:39:31.506Z,99762.22
2022-12-23T08:41:58.096Z,99763.09
2022-12-23T08:44:27.934Z,99771.94
2022-12-23T08:46:55.246Z,99765.66
2022-12-23T08:49:21.757Z,99773.66
2022-12-23T08:51:48.142Z,99769.47
2022-12-23T08:54:14.581Z,99768.03
2022-12-23T08:56:41.933Z,99770.34
2022-12-23T08:59:19.102Z,99764.25
2022-12-23T09:01:48.979Z,99767.22
2022-12-23T09:04:15.539Z,99770.38
2022-12-23T09:06:42.994Z,99780.06
2022-12-23T09:09:11.844Z,99779.84
2022-12-23T09:11:38.357Z,99781.75
2022-12-23T09:14:06.005Z,99783.00
2022-12-23T09:16:32.580Z,99780.09
2022-12-23T09:19:01.725Z,99775.91
2022-12-23T09:21:28.210Z,99777.41
2022-12-23T09:23:57.243Z,99783.28
2022-12-23T09:26:26.720Z,99778.69
2022-12-23T09:28:56.625Z,99788.16
2022-12-23T09:31:23.922Z,99782.25
2022-12-23T09:33:52.835Z,99788.78
2022-12-23T09:36:20.630Z,99782.28
2022-12-23T09:38:47.351Z,99779.97
2022-12-23T09:41:35.399Z,99778.28
2022-12-23T09:44:20.168Z,99768.00
2022-12-23T09:46:56.577Z,99762.97
2022-12-23T09:49:24.150Z,99769.91
2022-12-23T09:51:54.070Z,99754.56
2022-12-23T09:54:26.211Z,99756.66
2022-12-23T09:57:00.323Z,99758.56
2022-12-23T09:59:59.740Z,99758.78
2022-12-23T10:02:29.121Z,99755.00
2022-12-23T10:05:17.468Z,99740.75
2022-12-23T10:07:45.285Z,99739.47
2022-12-23T10:10:20.827Z,99744.06
2022-12-23T10:12:49.970Z,99744.06
2022-12-23T10:15:36.971Z,99740.72
2022-12-23T10:18:13.587Z,99737.56
2022-12-23T10:20:47.359Z,99736.09
2022-12-23T10:23:17.965Z,99734.84
2022-12-23T10:25:51.888Z,99731.47
2022-12-23T10:28:18.929Z,99724.13
2022-12-23T10:31:39.238Z,99724.78
2022-12-23T10:34:27.124Z,99720.34
2022-12-23T10:37:00.806Z,99715.94
2022-12-23T10:39:45.219Z,99707.75
2022-12-23T10:42:29.073Z,99696.81
2022-12-23T10:45:31.820Z,99711.31
2022-12-23T10:48:08.614Z,99707.31
2022-12-23T10:50:53.427Z,99703.97
2022-12-23T10:53:30.576Z,99700.59
2022-12-23T10:55:58.202Z,99690.75
2022-12-23T10:58:26.566Z,99697.88
2022-12-23T11:01:05.772Z,99694.31
2022-12-23T11:03:46.927Z,99691.59
2022-12-23T11:06:16.616Z,99674.81
2022-12-23T11:08:43.220Z,99673.97
2022-12-23T11:11:09.583Z,99671.44
2022-12-23T11:13:43.563Z,99672.28
2022-12-23T11:16:26.529Z,99667.22
2022-12-23T11:18:55.871Z,99670.56
2022-12-23T11:21:24.654Z,99661.34
2022-12-23T11:24:15.325Z,99650.41
2022-12-23T11:26:45.346Z,99638.03
2022-12-23T11:29:21.089Z,99623.53
2022-12-23T11:31:47.843Z,99626.50
2022-12-23T11:34:21.053Z,99621.44
2022-12-23T11:37:03.629Z,99609.69
2022-12-23T11:39:36.714Z,99605.47
2022-12-23T11:42:28.342Z,99590.75
2022-12-23T11:44:59.470Z,99589.50
2022-12-23T11:47:37.337Z,99584.03
2022-12-23T11:50:28.375Z,99584.03
2022-12-23T11:53:09.733Z,99583.81
2022-12-23T11:55:46.393Z,99591.38
2022-12-23T11:58:22.544Z,99587.81
2022-12-23T12:00:56.355Z,99576.28
2022-12-23T12:03:27.712Z,99564.28
2022-12-23T12:06:05.649Z,99565.38
2022-12-23T12:08:41.911Z,99567.66
2022-12-23T12:11:18.362Z,99556.50
2022-12-23T12:13:49.132Z,99544.97
2022-12-23T12:16:29.091Z,99539.72
2022-12-23T12:19:00.658Z,99536.13
2022-12-23T12:21:33.198Z,99535.94
2022-12-23T12:24:18.928Z,99526.91
2022-12-23T12:26:52.969Z,99525.66
2022-12-23T12:29:35.077Z,99519.75
2022-12-23T12:32:02.041Z,99515.53
2022-12-23T12:34:36.442Z,99509.03
2022-12-23T12:37:24.880Z,99497.50
2022-12-23T12:40:00.699Z,99497.69
2022-12-23T12:42:53.169Z,99494.09
2022-12-23T12:45:32.070Z,99485.72
2022-12-23T12:48:22.376Z,99472.50
2022-12-23T12:50:59.431Z,99472.69
2022-12-23T12:53:28.196Z,99470.16
2022-12-23T12:56:14.938Z,99468.06
2022-12-23T12:58:47.016Z,99469.31
2022-12-23T13:01:37.115Z,99457.53
2022-12-23T13:04:47.874Z,99458.97
2022-12-23T13:07:48.215Z,99449.75
2022-12-23T13:10:39.126Z,99454.56
2022-12-23T13:13:30.370Z,99449.28
2022-12-23T13:16:25.255Z,99446.13
2022-12-23T13:18:51.702Z,99435.59
2022-12-23T13:21:24.094Z,99429.69
2022-12-23T13:24:32.619Z,99425.84
2022-12-23T13:27:13.956Z,99431.09
2022-12-23T13:29:58.215Z,99426.03
2022-12-23T13:32:31.244Z,99417.81
2022-12-23T13:35:14.246Z,99418.22
2022-12-23T13:38:10.198Z,99407.91
2022-12-23T13:40:58.239Z,99408.31
2022-12-23T13:43:40.311Z,99403.22
2022-12-23T13:46:30.241Z,99399.66
2022-12-23T13:49:05.966Z,99398.16
2022-12-23T13:52:13.388Z,99391.59
2022-12-23T13:55:10.194Z,99392.41
2022-12-23T13:58:01.096Z,99388.97
2022-12-23T14:00:32.928Z,99374.63
2022-12-23T14:03:02.488Z,99378.81
2022-12-23T14:05:54.164Z,99381.34
2022-12-23T14:08:28.853Z,99380.09
2022-12-23T14:10:57.487Z,99380.66
2022-12-23T14:13:27.430Z,99384.84
2022-12-23T14:16:18.478Z,99375.56
2022-12-23T14:19:06.936Z,99385.69
2022-12-23T14:22:00.853Z,99380.59
2022-12-23T14:24:45.753Z,99382.28
2022-12-23T14:27:33.599Z,99373.69
2022-12-23T14:30:12.984Z,99369.66
2022-12-23T14:32:52.202Z,99375.50
2022-12-23T14:35:20.977Z,99375.75
2022-12-23T14:38:16.924Z,99369.44
2022-12-23T14:40:43.514Z,99363.72
2022-12-23T14:43:22.339Z,99369.81
2022-12-23T14:45:50.470Z,99362.06
2022-12-23T14:48:36.050Z,99369.81
2022-12-23T14:51:03.589Z,99367.69
2022-12-23T14:53:33.282Z,99372.09
2022-12-23T14:56:15.001Z,99366.41
2022-12-23T14:59:10.034Z,99369.56
2022-12-23T15:01:42.374Z,99375.03
2022-12-23T15:04:20.901Z,99373.31
2022-12-23T15:07:09.053Z,99370.13
2022-12-23T15:09:40.220Z,99371.25
2022-12-23T15:12:14.911Z,99369.53
2022-12-23T15:14:50.842Z,99367.69
2022-12-23T15:17:25.878Z,99356.53
2022-12-23T15:19:53.856Z,99364.72
2022-12-23T15:22:28.301Z,99367.94
2022-12-23T15:24:58.726Z,99366.63
2022-12-23T15:27:28.500Z,99360.94
2022-12-23T15:29:58.815Z,99358.41
2022-12-23T15:32:26.812Z,99363.44
2022-12-23T15:35:03.257Z,99364.47
2022-12-23T15:37:31.464Z,99365.09
2022-12-23T15:40:09.943Z,99376.50
2022-12-23T15:42:38.627Z,99374.38
2022-12-23T15:45:30.987Z,99374.75
2022-12-23T15:47:57.552Z,99370.88
2022-12-23T15:50:24.449Z,99382.88
2022-12-23T15:52:56.064Z,99378.69
2022-12-23T15:55:30.188Z,99381.97
2022-12-23T15:57:57.057Z,99374.44
2022-12-23T16:00:39.867Z,99389.56
2022-12-23T16:03:21.689Z,99383.25
2022-12-23T16:05:50.838Z,99383.97
2022-12-23T16:08:30.187Z,99393.22
2022-12-23T16:11:14.153Z,99378.13
2022-12-23T16:13:58.057Z,99379.16
2022-12-23T16:16:40.413Z,99380.59
2022-12-23T16:19:42.108Z,99398.53
2022-12-23T16:22:20.517Z,99389.72
2022-12-23T16:24:52.228Z,99388.88
2022-12-23T16:27:25.198Z,99395.66
2022-12-23T16:29:51.572Z,99387.44
2022-12-23T16:32:19.464Z,99392.47
2022-12-23T16:34:51.276Z,99388.88
2022-12-23T16:37:17.730Z,99389.09
2022-12-23T16:39:44.088Z,99395.19
2022-12-23T16:42:15.400Z,99405.69
2022-12-23T16:44:41.785Z,99409.47
2022-12-23T16:47:16.991Z,99414.09
2022-12-23T16:49:45.819Z,99424.59
2022-12-23T16:52:14.633Z,99425.72
2022-12-23T16:54:45.812Z,99427.38
2022-12-23T16:57:12.241Z,99423.44
2022-12-23T16:59:40.985Z,99426.78
2022-12-23T17:02:19.175Z,99426.16
2022-12-23T17:04:45.705Z,99432.44
2022-12-23T17:07:12.678Z,99433.94
2022-12-23T17:09:39.178Z,99438.56
2022-12-23T17:12:11.912Z,99441.31
2022-12-23T17:14:38.748Z,99435.00
2022-12-23T17:17:14.533Z,99438.63
2022-12-23T17:19:41.841Z,99448.34
2022-12-23T17:22:13.132Z,99455.72
2022-12-23T17:24:41.867Z,99461.19
2022-12-23T17:27:13.585Z,99449.84
2022-12-23T17:29:40.204Z,99443.09
2022-12-23T17:32:11.796Z,99459.56
2022-12-23T17:34:38.413Z,99464.59
2022-12-23T17:37:19.728Z,99469.41
2022-12-23T17:39:47.101Z,99478.06
2022-12-23T17:42:25.422Z,99478.47
2022-12-23T17:44:52.871Z,99490.03
2022-12-23T17:47:22.078Z,99480.59
2022-12-23T17:49:49.432Z,99482.09
2022-12-23T17:52:18.575Z,99494.47
2022-12-23T17:54:46.467Z,99486.97
2022-12-23T17:57:28.365Z,99488.22
2022-12-23T17:59:57.337Z,99497.09
2022-12-23T18:02:26.552Z,99507.81
2022-12-23T18:04:53.509Z,99511.00
2022-12-23T18:07:22.535Z,99508.72
2022-12-23T18:09:53.012Z,99515.22
2022-12-23T18:12:34.738Z,99512.31
2022-12-23T18:15:02.370Z,99500.13
2022-12-23T18:17:31.440Z,99496.34
2022-12-23T18:19:58.004Z,99497.16
2022-12-23T18:22:28.234Z,99503.66
2022-12-23T18:24:59.064Z,99500.31
2022-12-23T18:27:26.114Z,99503.50
2022-12-23T18:29:52.616Z,99505.22
2022-12-23T18:32:25.125Z,99510.06
2022-12-23T18:34:55.460Z,99521.84
2022-12-23T18:37:23.950Z,99540.13
2022-12-23T18:39:50.615Z,99543.69
2022-12-23T18:42:19.214Z,99551.00
2022-12-23T18:44:48.505Z,99538.78
2022-12-23T18:47:14.918Z,99544.66
2022-12-23T18:49:41.849Z,99549.72
2022-12-23T18:52:12.695Z,99552.84
2022-12-23T18:54:40.046Z,99566.97
2022-12-23T18:57:07.269Z,99575.81
2022-12-23T18:59:37.439Z,99588.00
2022-12-23T19:02:04.616Z,99569.75
2022-12-23T19:04:31.114Z,99574.16
2022-12-23T19:06:57.941Z,99571.03
2022-12-23T19:09:25.112Z,99582.38
2022-12-23T19:11:55.297Z,99578.59
2022-12-23T19:14:24.289Z,99587.03
2022-12-23T19:16:52.272Z,99589.75
2022-12-23T19:19:19.084Z,99603.22
2022-12-23T19:21:45.505Z,99612.31
2022-12-23T19:24:12.071Z,99626.84
2022-12-23T19:26:38.686Z,99626.84
2022-12-23T19:29:05.229Z,99623.47
2022-12-23T19:31:34.061Z,99624.94
2022-12-23T19:34:03.410Z,99631.91
2022-12-23T19:36:32.501Z,99636.06
2022-12-23T19:38:58.968Z,99630.19
2022-12-23T19:41:25.749Z,99636.06
2022-12-23T19:43:52.329Z,99634.41
2022-12-23T19:46:19.270Z,99650.81
2022-12-23T19:48:53.278Z,99654.38
2022-12-23T19:51:20.247Z,99664.25
2022-12-23T19:53:51.240Z,99670.06
2022-12-23T19:56:25.407Z,99650.31
2022-12-23T19:58:51.960Z,99651.19
2022-12-23T20:01:21.605Z,99639.66
2022-12-23T20:03:48.945Z,99653.94
2022-12-23T20:06:26.198Z,99633.56
2022-12-23T20:08:59.719Z,99645.38
2022-12-23T20:11:30.979Z,99655.44
2022-12-23T20:13:58.614Z,99655.88
2022-12-23T20:16:28.467Z,99678.13
2022-12-23T20:18:55.632Z,99678.13
2022-12-23T20:21:22.602Z,99679.00
2022-12-23T20:23:49.851Z,99710.69
2022-12-23T20:26:17.856Z,99726.03
2022-12-23T20:28:47.868Z,99734.44
2022-12-23T20:31:18.029Z,99728.97
2022-12-23T20:33:45.662Z,99725.59
2022-12-23T20:36:14.181Z,99716.34
2022-12-23T20:38:45.437Z,99719.72
2022-12-23T20:41:14.762Z,99717.19
2022-12-23T20:43:46.023Z,99726.84
2022-12-23T20:46:19.944Z,99722.03
2022-12-23T20:48:47.140Z,99730.44
2022-12-23T20:51:23.952Z,99743.25
2022-12-23T20:53:55.030Z,99747.66
2022-12-23T20:56:22.335Z,99739.88
2022-12-23T20:58:54.627Z,99759.84
2022-12-23T21:01:32.890Z,99756.06
2022-12-23T21:04:02.256Z,99760.00
2022-12-23T21:06:30.595Z,99766.31
2022-12-23T21:08:59.490Z,99773.25
2022-12-23T21:11:30.659Z,99785.19
2022-12-23T21:14:02.617Z,99790.88
2022-12-23T21:16:35.816Z,99806.84
2022-12-23T21:19:02.945Z,99806.03
2022-12-23T21:21:32.494Z,99800.75
2022-12-23T21:24:02.650Z,99801.81
2022-12-23T21:27:00.862Z,99794.25
2022-12-23T21:29:27.486Z,99816.31
2022-12-23T21:31:55.266Z,99803.28
2022-12-23T21:34:22.181Z,99804.13
2022-12-23T21:36:48.902Z,99811.06
2022-12-23T21:39:16.149Z,99812.09
2022-12-23T21:41:43.057Z,99811.06
2022-12-23T21:44:11.709Z,99821.38
2022-12-23T21:46:38.280Z,99818.84
2022-12-23T21:49:04.748Z,99813.38
2022-12-23T21:51:39.572Z,99819.25
2022-12-23T21:54:07.194Z,99838.38
2022-12-23T21:56:36.519Z,99838.59
2022-12-23T21:59:08.574Z,99843.63
2022-12-23T22:01:35.779Z,99829.56
2022-12-23T22:04:03.179Z,99840.25
2022-12-23T22:06:36.905Z,99838.97
2022-12-23T22:09:05.391Z,99863.28
2022-12-23T22:11:36.392Z,99856.75
2022-12-23T22:14:07.511Z,99861.75
2022-12-23T22:16:35.114Z,99871.63
2022-12-23T22:19:02.599Z,99871.03
2022-12-23T22:21:31.956Z,99870.38
2022-12-23T22:23:59.105Z,99880.00
2022-12-23T22:26:28.339Z,99885.25
2022-12-23T22:28:56.392Z,99869.34
2022-12-23T22:31:33.892Z,99879.22
2022-12-23T22:34:00.452Z,99877.34
2022-12-23T22:36:27.432Z,99891.44
2022-12-23T22:38:57.116Z,99893.28
2022-12-23T22:41:25.445Z,99900.19
2022-12-23T22:43:52.055Z,99897.66
2022-12-23T22:46:18.759Z,99904.34
2022-12-23T22:48:48.360Z,99906.22
2022-12-23T22:51:23.631Z,99906.63
2022-12-23T22:53:50.374Z,99912.88
2022-12-23T22:56:18.714Z,99908.44
2022-12-23T22:58:45.228Z,99903.63
2022-12-23T23:01:25.477Z,99897.31
2022-12-23T23:04:10.696Z,99899.38
2022-12-23T23:06:39.762Z,99899.13
2022-12-23T23:09:08.173Z,99911.94
2022-12-23T23:11:34.934Z,99907.94
2022-12-23T23:14:01.795Z,99913.38
2022-12-23T23:16:28.460Z,99921.31
2022-12-23T23:18:55.745Z,99934.31
2022-12-23T23:21:22.440Z,99927.56
2022-12-23T23:23:49.701Z,99934.75
2022-12-23T23:26:17.195Z,99948.09
2022-12-23T23:28:44.599Z,99956.00
2022-12-23T23:33:58.123Z,99963.03
2022-12-23T23:36:24.755Z,99962.16
2022-12-23T23:38:53.497Z,99978.06
2022-12-23T23:41:23.400Z,99982.22
2022-12-23T23:43:50.628Z,99979.31
2022-12-23T23:46:17.244Z,99990.25
2022-12-23T23:48:43.685Z,99995.28
2022-12-23T23:51:10.354Z,99987.09
2022-12-23T23:53:36.780Z,99994.88
2022-12-23T23:56:07.527Z,99987.94
2022-12-23T23:58:37.737Z,99992.59
